createdAt,value
2022-11-13T00:00:55.392Z,85.91
2022-11-13T00:03:21.982Z,85.72
2022-11-13T00:05:48.407Z,86.14
2022-11-13T00:08:15.064Z,86.11
2022-11-13T00:10:41.377Z,86.00
2022-11-13T00:13:07.700Z,86.11
2022-11-13T00:15:34.023Z,85.65
2022-11-13T00:18:02.479Z,85.60
2022-11-13T00:20:28.858Z,85.98
2022-11-13T00:22:55.174Z,85.40
2022-11-13T00:25:22.118Z,85.61
2022-11-13T00:27:48.447Z,85.50
2022-11-13T00:30:19.226Z,85.58
2022-11-13T00:32:46.179Z,86.18
2022-11-13T00:35:12.567Z,85.94
2022-11-13T00:37:38.883Z,85.93
2022-11-13T00:40:05.629Z,86.25
2022-11-13T00:42:31.995Z,85.83
2022-11-13T00:44:58.300Z,86.30
2022-11-13T00:47:24.604Z,86.51
2022-11-13T00:49:50.966Z,86.75
2022-11-13T00:52:17.311Z,86.71
2022-11-13T00:54:43.695Z,86.91
2022-11-13T00:57:10.206Z,86.56
2022-11-13T00:59:36.545Z,86.84
2022-11-13T01:02:02.957Z,86.81
2022-11-13T01:04:29.471Z,86.78
2022-11-13T01:06:55.962Z,86.17
2022-11-13T01:09:22.317Z,86.40
2022-11-13T01:11:48.722Z,86.78
2022-11-13T01:14:15.031Z,86.61
2022-11-13T01:16:41.371Z,86.74
2022-11-13T01:19:07.813Z,86.89
2022-11-13T01:21:34.135Z,86.87
2022-11-13T01:24:01.352Z,86.83
2022-11-13T01:26:30.631Z,86.90
2022-11-13T01:28:58.812Z,86.76
2022-11-13T01:31:28.016Z,86.62
2022-11-13T01:33:54.923Z,86.62
2022-11-13T01:36:24.256Z,86.97
2022-11-13T01:38:51.474Z,86.94
2022-11-13T01:41:25.672Z,86.71
2022-11-13T01:43:53.975Z,87.04
2022-11-13T01:46:42.237Z,86.77
2022-11-13T01:49:08.597Z,87.19
2022-11-13T01:51:39.542Z,87.38
2022-11-13T01:54:11.331Z,87.29
2022-11-13T01:56:37.677Z,86.98
2022-11-13T01:59:12.430Z,86.75
2022-11-13T02:01:39.287Z,86.84
2022-11-13T02:04:05.672Z,87.03
2022-11-13T02:06:40.027Z,87.71
2022-11-13T02:09:07.988Z,86.96
2022-11-13T02:11:34.374Z,87.01
2022-11-13T02:14:00.864Z,87.45
2022-11-13T02:16:27.724Z,87.08
2022-11-13T02:18:54.128Z,87.50
2022-11-13T02:21:42.024Z,87.51
2022-11-13T02:24:29.453Z,87.38
2022-11-13T02:27:01.761Z,87.01
2022-11-13T02:29:28.159Z,87.17
2022-11-13T02:31:54.505Z,86.94
2022-11-13T02:34:20.820Z,86.99
2022-11-13T02:36:47.692Z,86.72
2022-11-13T02:39:14.589Z,87.21
2022-11-13T02:41:41.050Z,87.54
2022-11-13T02:44:08.234Z,86.99
2022-11-13T02:46:34.939Z,87.32
2022-11-13T02:49:01.294Z,87.21
2022-11-13T02:51:27.609Z,86.98
2022-11-13T02:53:54.375Z,86.28
2022-11-13T02:56:20.844Z,86.87
2022-11-13T02:58:47.182Z,87.06
2022-11-13T03:01:13.521Z,86.85
2022-11-13T03:06:26.363Z,86.98
2022-11-13T03:08:52.772Z,86.73
2022-11-13T03:11:19.176Z,86.75
2022-11-13T03:13:45.532Z,86.93
2022-11-13T03:16:14.475Z,86.87
2022-11-13T03:18:41.494Z,86.87
2022-11-13T03:21:13.700Z,87.23
2022-11-13T03:23:41.819Z,87.18
2022-11-13T03:26:10.928Z,87.48
2022-11-13T03:28:37.340Z,87.09
2022-11-13T03:31:04.978Z,87.16
2022-11-13T03:33:31.955Z,87.38
2022-11-13T03:35:58.527Z,87.22
2022-11-13T03:38:26.083Z,87.33
2022-11-13T03:40:52.904Z,87.55
2022-11-13T03:43:19.273Z,87.16
2022-11-13T03:45:46.666Z,87.52
2022-11-13T03:48:14.763Z,87.87
2022-11-13T03:50:49.492Z,87.83
2022-11-13T03:53:16.038Z,87.60
2022-11-13T03:55:43.426Z,87.95
2022-11-13T03:58:10.348Z,87.91
2022-11-13T04:00:41.198Z,87.77
2022-11-13T04:03:08.351Z,88.02
2022-11-13T04:05:34.702Z,87.62
2022-11-13T04:08:01.103Z,87.41
2022-11-13T04:10:27.512Z,87.53
2022-11-13T04:12:53.950Z,87.63
2022-11-13T04:15:20.462Z,88.06
2022-11-13T04:17:46.816Z,87.66
2022-11-13T04:20:13.159Z,88.01
2022-11-13T04:22:39.594Z,88.25
2022-11-13T04:25:06.633Z,87.95
2022-11-13T04:27:32.975Z,87.76
2022-11-13T04:29:59.385Z,87.61
2022-11-13T04:32:25.816Z,87.68
2022-11-13T04:34:52.180Z,87.86
2022-11-13T04:37:18.628Z,87.68
2022-11-13T04:39:45.276Z,87.75
2022-11-13T04:42:31.179Z,88.33
2022-11-13T04:44:57.615Z,88.40
2022-11-13T04:47:23.953Z,88.52
2022-11-13T04:49:50.340Z,88.26
2022-11-13T04:52:16.726Z,88.57
2022-11-13T04:54:43.083Z,87.83
2022-11-13T04:57:09.435Z,88.11
2022-11-13T04:59:35.824Z,88.11
2022-11-13T05:02:02.287Z,87.74
2022-11-13T05:04:28.664Z,87.79
2022-11-13T05:06:55.050Z,87.56
2022-11-13T05:09:21.453Z,88.11
2022-11-13T05:11:47.819Z,88.00
2022-11-13T05:14:14.474Z,87.76
2022-11-13T05:16:40.947Z,88.16
2022-11-13T05:19:07.473Z,87.42
2022-11-13T05:21:35.243Z,87.98
2022-11-13T05:24:01.720Z,87.85
2022-11-13T05:26:28.130Z,88.21
2022-11-13T05:29:00.754Z,88.13
2022-11-13T05:31:27.321Z,87.83
2022-11-13T05:33:54.259Z,88.40
2022-11-13T05:36:21.772Z,88.04
2022-11-13T05:38:48.934Z,87.83
2022-11-13T05:41:21.321Z,88.25
2022-11-13T05:43:48.249Z,87.61
2022-11-13T05:46:19.758Z,88.73
2022-11-13T05:48:47.084Z,88.14
2022-11-13T05:51:17.591Z,88.46
2022-11-13T05:53:44.495Z,88.60
2022-11-13T05:56:19.374Z,88.37
2022-11-13T05:58:46.940Z,87.97
2022-11-13T06:01:17.223Z,88.46
2022-11-13T06:03:44.348Z,88.66
2022-11-13T06:06:13.554Z,88.45
2022-11-13T06:08:40.804Z,88.08
2022-11-13T06:11:09.910Z,88.58
2022-11-13T06:13:36.417Z,88.57
2022-11-13T06:16:11.295Z,89.10
2022-11-13T06:18:39.010Z,88.81
2022-11-13T06:21:08.364Z,88.72
2022-11-13T06:23:39.315Z,88.85
2022-11-13T06:26:12.881Z,88.68
2022-11-13T06:28:39.812Z,88.61
2022-11-13T06:31:11.840Z,88.20
2022-11-13T06:33:38.900Z,88.35
2022-11-13T06:36:07.810Z,88.61
2022-11-13T06:38:37.934Z,88.67
2022-11-13T06:41:05.642Z,88.41
2022-11-13T06:43:32.279Z,88.06
2022-11-13T06:45:58.791Z,88.42
2022-11-13T06:48:26.031Z,88.05
2022-11-13T06:50:52.621Z,88.30
2022-11-13T06:53:18.979Z,88.11
2022-11-13T06:55:50.511Z,87.96
2022-11-13T06:58:17.050Z,88.39
2022-11-13T07:00:44.045Z,88.15
2022-11-13T07:03:21.690Z,88.22
2022-11-13T07:05:48.463Z,88.51
2022-11-13T07:08:15.551Z,88.72
2022-11-13T07:10:42.514Z,88.39
2022-11-13T07:13:09.494Z,88.65
2022-11-13T07:15:37.583Z,88.32
2022-11-13T07:18:05.607Z,88.71
2022-11-13T07:20:33.084Z,88.66
2022-11-13T07:23:01.204Z,88.69
2022-11-13T07:25:28.603Z,88.67
2022-11-13T07:27:55.062Z,88.88
2022-11-13T07:30:21.543Z,88.67
2022-11-13T07:32:48.068Z,88.94
2022-11-13T07:35:14.438Z,88.72
2022-11-13T07:37:40.873Z,88.75
2022-11-13T07:40:07.705Z,88.93
2022-11-13T07:42:34.042Z,88.52
2022-11-13T07:45:00.872Z,88.30
2022-11-13T07:47:27.388Z,88.23
2022-11-13T07:49:59.711Z,87.96
2022-11-13T07:52:29.911Z,88.68
2022-11-13T07:54:56.241Z,88.37
2022-11-13T07:57:22.925Z,88.33
2022-11-13T07:59:49.371Z,88.48
2022-11-13T08:02:16.699Z,88.91
2022-11-13T08:04:43.018Z,89.30
2022-11-13T08:07:11.493Z,89.23
2022-11-13T08:09:37.927Z,88.98
2022-11-13T08:12:04.421Z,88.93
2022-11-13T08:14:30.723Z,89.02
2022-11-13T08:16:57.044Z,89.43
2022-11-13T08:19:23.415Z,88.80
2022-11-13T08:21:49.827Z,88.68
2022-11-13T08:24:16.162Z,88.65
2022-11-13T08:26:42.562Z,88.20
2022-11-13T08:29:08.879Z,88.25
2022-11-13T08:31:35.215Z,88.28
2022-11-13T08:34:01.568Z,88.49
2022-11-13T08:36:27.900Z,88.35
2022-11-13T08:38:54.285Z,88.10
2022-11-13T08:41:20.608Z,87.76
2022-11-13T08:43:47.098Z,87.86
2022-11-13T08:46:13.447Z,87.37
2022-11-13T08:48:39.803Z,87.54
2022-11-13T08:51:06.163Z,87.53
2022-11-13T08:53:32.511Z,87.25
2022-11-13T08:56:02.971Z,86.85
2022-11-13T08:58:29.526Z,86.73
2022-11-13T09:01:00.588Z,86.85
2022-11-13T09:03:27.111Z,86.50
2022-11-13T09:05:53.507Z,86.51
2022-11-13T09:08:19.812Z,86.09
2022-11-13T09:10:46.184Z,85.75
2022-11-13T09:13:12.568Z,85.24
2022-11-13T09:15:39.883Z,84.71
2022-11-13T09:18:06.467Z,84.41
2022-11-13T09:20:33.805Z,84.36
2022-11-13T09:23:02.606Z,84.14
2022-11-13T09:25:36.874Z,83.61
2022-11-13T09:28:04.867Z,83.42
2022-11-13T09:30:31.482Z,82.56
2022-11-13T09:32:59.653Z,82.66
2022-11-13T09:35:36.631Z,82.21
2022-11-13T09:38:11.009Z,82.13
2022-11-13T09:40:50.092Z,81.66
2022-11-13T09:43:33.796Z,81.44
2022-11-13T09:46:08.684Z,81.42
2022-11-13T09:48:42.408Z,81.10
2022-11-13T09:51:18.477Z,80.43
2022-11-13T09:53:45.207Z,80.06
2022-11-13T09:56:39.663Z,79.12
2022-11-13T09:59:39.747Z,78.92
2022-11-13T10:02:21.281Z,78.66
2022-11-13T10:05:13.129Z,77.90
2022-11-13T10:08:00.867Z,77.10
2022-11-13T10:10:56.180Z,77.15
2022-11-13T10:13:33.131Z,75.89
2022-11-13T10:16:09.316Z,76.04
2022-11-13T10:18:38.233Z,75.63
2022-11-13T10:21:25.040Z,75.10
2022-11-13T10:23:56.928Z,74.24
2022-11-13T10:26:27.523Z,73.00
2022-11-13T10:29:06.405Z,73.08
2022-11-13T10:31:48.222Z,73.00
2022-11-13T10:34:16.068Z,72.97
2022-11-13T10:36:54.785Z,69.47
2022-11-13T10:39:21.285Z,68.90
2022-11-13T10:41:50.521Z,68.12
2022-11-13T10:44:26.375Z,67.36
2022-11-13T10:47:05.557Z,66.83
2022-11-13T10:49:31.963Z,66.33
2022-11-13T10:52:00.995Z,65.16
2022-11-13T10:54:30.472Z,64.54
2022-11-13T10:56:59.499Z,65.53
2022-11-13T10:59:27.038Z,65.65
2022-11-13T11:01:53.452Z,64.33
2022-11-13T11:04:27.321Z,62.49
2022-11-13T11:07:19.012Z,61.58
2022-11-13T11:09:43.118Z,62.10
2022-11-13T11:12:17.141Z,60.73
2022-11-13T11:14:58.968Z,60.70
2022-11-13T11:17:34.178Z,59.06
2022-11-13T11:20:13.624Z,60.07
2022-11-13T11:22:41.243Z,60.01
2022-11-13T11:25:17.361Z,59.13
2022-11-13T11:27:50.920Z,58.01
2022-11-13T11:30:26.556Z,57.11
2022-11-13T11:33:20.438Z,57.28
2022-11-13T11:35:56.704Z,58.36
2022-11-13T11:38:36.128Z,58.12
2022-11-13T11:41:16.670Z,57.53
2022-11-13T11:43:44.822Z,55.92
2022-11-13T11:46:18.307Z,56.60
2022-11-13T11:48:44.708Z,55.64
2022-11-13T11:51:23.819Z,56.23
2022-11-13T11:53:56.769Z,54.70
2022-11-13T11:56:52.429Z,54.31
2022-11-13T11:59:39.239Z,55.30
2022-11-13T12:02:34.623Z,55.14
2022-11-13T12:05:20.076Z,52.98
2022-11-13T12:08:15.826Z,53.64
2022-11-13T12:10:46.414Z,52.75
2022-11-13T12:13:12.791Z,51.43
2022-11-13T12:16:02.049Z,51.83
2022-11-13T12:18:40.747Z,51.13
2022-11-13T12:21:24.010Z,52.18
2022-11-13T12:24:14.439Z,50.75
2022-11-13T12:26:51.943Z,50.64
2022-11-13T12:29:31.873Z,50.10
2022-11-13T12:32:31.123Z,51.52
2022-11-13T12:35:05.391Z,48.67
2022-11-13T12:37:53.626Z,50.71
2022-11-13T12:40:44.182Z,48.97
2022-11-13T12:43:16.774Z,49.55
2022-11-13T12:45:54.872Z,50.44
2022-11-13T12:48:26.326Z,50.07
2022-11-13T12:51:19.166Z,50.57
2022-11-13T12:53:54.372Z,49.98
2022-11-13T12:56:27.604Z,49.49
2022-11-13T12:59:30.484Z,49.66
2022-11-13T13:02:06.501Z,49.59
2022-11-13T13:04:38.860Z,44.59
2022-11-13T13:07:17.334Z,45.40
2022-11-13T13:09:57.557Z,46.54
2022-11-13T13:12:51.769Z,45.64
2022-11-13T13:15:36.012Z,47.59
2022-11-13T13:18:06.283Z,43.98
2022-11-13T13:20:36.515Z,44.39
2022-11-13T13:23:08.295Z,42.84
2022-11-13T13:25:36.414Z,44.55
2022-11-13T13:28:22.985Z,44.96
2022-11-13T13:31:20.418Z,44.21
2022-11-13T13:34:24.469Z,44.10
2022-11-13T13:37:03.388Z,43.09
2022-11-13T13:40:02.585Z,44.30
2022-11-13T13:43:03.760Z,44.45
2022-11-13T13:46:01.428Z,44.52
2022-11-13T13:48:30.967Z,42.92
2022-11-13T13:51:00.237Z,43.84
2022-11-13T13:53:31.200Z,44.64
2022-11-13T13:55:58.963Z,44.95
2022-11-13T13:58:31.684Z,45.39
2022-11-13T14:01:18.134Z,44.90
2022-11-13T14:03:45.569Z,44.88
2022-11-13T14:06:21.754Z,46.66
2022-11-13T14:08:48.554Z,46.66
2022-11-13T14:11:22.722Z,46.42
2022-11-13T14:13:49.111Z,46.41
2022-11-13T14:16:15.513Z,46.90
2022-11-13T14:18:41.902Z,47.40
2022-11-13T14:21:20.951Z,47.42
2022-11-13T14:23:51.046Z,47.81
2022-11-13T14:26:18.956Z,48.39
2022-11-13T14:28:54.408Z,48.60
2022-11-13T14:31:27.513Z,49.55
2022-11-13T14:33:54.409Z,50.09
2022-11-13T14:36:31.420Z,49.87
2022-11-13T14:38:58.764Z,50.73
2022-11-13T14:41:48.912Z,50.95
2022-11-13T14:44:30.679Z,50.85
2022-11-13T14:47:06.679Z,51.65
2022-11-13T14:49:36.516Z,51.73
2022-11-13T14:52:03.549Z,51.99
2022-11-13T14:54:53.572Z,52.83
2022-11-13T14:57:21.994Z,53.05
2022-11-13T14:59:48.343Z,53.47
2022-11-13T15:02:14.670Z,53.62
2022-11-13T15:04:41.093Z,53.83
2022-11-13T15:07:26.500Z,53.84
2022-11-13T15:09:53.386Z,54.80
2022-11-13T15:12:19.803Z,55.01
2022-11-13T15:14:46.904Z,55.48
2022-11-13T15:17:17.360Z,55.87
2022-11-13T15:19:44.970Z,56.64
2022-11-13T15:22:28.848Z,56.85
2022-11-13T15:24:55.328Z,57.05
2022-11-13T15:27:21.716Z,57.68
2022-11-13T15:29:48.143Z,58.27
2022-11-13T15:32:15.883Z,58.50
2022-11-13T15:34:42.355Z,58.86
2022-11-13T15:37:18.152Z,59.09
2022-11-13T15:39:44.612Z,59.44
2022-11-13T15:42:17.059Z,59.54
2022-11-13T15:44:43.631Z,59.94
2022-11-13T15:47:29.441Z,60.34
2022-11-13T15:50:12.873Z,60.44
2022-11-13T15:52:42.504Z,60.53
2022-11-13T15:55:31.150Z,60.72
2022-11-13T15:57:58.438Z,61.16
2022-11-13T16:00:27.140Z,61.58
2022-11-13T16:02:56.007Z,61.70
2022-11-13T16:05:28.985Z,61.90
2022-11-13T16:07:56.173Z,62.44
2022-11-13T16:10:25.104Z,62.65
2022-11-13T16:12:52.504Z,62.67
2022-11-13T16:15:19.628Z,63.01
2022-11-13T16:17:52.202Z,62.93
2022-11-13T16:20:19.042Z,63.01
2022-11-13T16:22:46.032Z,63.15
2022-11-13T16:25:15.398Z,63.33
2022-11-13T16:27:41.846Z,63.36
2022-11-13T16:30:23.126Z,63.56
2022-11-13T16:32:49.439Z,63.26
2022-11-13T16:35:17.403Z,63.47
2022-11-13T16:37:44.206Z,63.86
2022-11-13T16:40:22.841Z,64.02
2022-11-13T16:42:49.504Z,64.53
2022-11-13T16:45:16.821Z,64.87
2022-11-13T16:47:44.226Z,65.47
2022-11-13T16:50:24.522Z,65.64
2022-11-13T16:52:51.032Z,65.88
2022-11-13T16:55:17.481Z,65.75
2022-11-13T16:57:43.834Z,65.85
2022-11-13T17:00:14.117Z,66.48
2022-11-13T17:02:40.443Z,66.75
2022-11-13T17:05:07.078Z,66.97
2022-11-13T17:07:33.450Z,67.38
2022-11-13T17:10:29.098Z,67.56
2022-11-13T17:12:50.919Z,67.99
2022-11-13T17:15:17.465Z,68.33
2022-11-13T17:17:44.176Z,68.77
2022-11-13T17:20:11.715Z,68.86
2022-11-13T17:22:38.087Z,69.08
2022-11-13T17:25:04.805Z,69.11
2022-11-13T17:27:31.192Z,69.67
2022-11-13T17:29:57.554Z,69.97
2022-11-13T17:32:24.312Z,70.23
2022-11-13T17:34:50.705Z,70.20
2022-11-13T17:37:18.063Z,70.68
2022-11-13T17:39:45.980Z,70.92
2022-11-13T17:42:12.345Z,71.57
2022-11-13T17:44:38.669Z,71.51
2022-11-13T17:47:04.992Z,71.35
2022-11-13T17:49:31.475Z,71.27
2022-11-13T17:51:57.860Z,71.28
2022-11-13T17:54:25.241Z,71.53
2022-11-13T17:56:51.567Z,71.45
2022-11-13T17:59:17.918Z,71.60
2022-11-13T18:01:44.308Z,71.68
2022-11-13T18:04:12.257Z,72.41
2022-11-13T18:06:38.659Z,72.57
2022-11-13T18:09:06.248Z,72.81
2022-11-13T18:11:32.692Z,73.23
2022-11-13T18:13:59.011Z,73.33
2022-11-13T18:16:29.555Z,73.70
2022-11-13T18:18:58.188Z,73.97
2022-11-13T18:21:27.609Z,73.98
2022-11-13T18:24:07.103Z,74.18
2022-11-13T18:26:34.330Z,74.08
2022-11-13T18:29:01.323Z,74.07
2022-11-13T18:31:28.085Z,74.19
2022-11-13T18:33:54.822Z,74.20
2022-11-13T18:36:21.194Z,74.25
2022-11-13T18:38:47.634Z,74.24
2022-11-13T18:41:17.276Z,74.22
2022-11-13T18:43:45.407Z,74.23
2022-11-13T18:46:13.304Z,74.44
2022-11-13T18:48:41.720Z,74.50
2022-11-13T18:51:14.563Z,74.53
2022-11-13T18:53:43.536Z,74.45
2022-11-13T18:56:15.635Z,74.95
2022-11-13T18:58:43.598Z,75.14
2022-11-13T19:01:20.514Z,75.56
2022-11-13T19:04:08.150Z,75.81
2022-11-13T19:06:36.851Z,75.97
2022-11-13T19:09:06.509Z,75.60
2022-11-13T19:11:33.337Z,75.84
2022-11-13T19:13:59.833Z,75.80
2022-11-13T19:16:29.656Z,75.99
2022-11-13T19:18:58.902Z,76.10
2022-11-13T19:21:27.952Z,76.79
2022-11-13T19:23:55.177Z,76.49
2022-11-13T19:26:21.638Z,76.21
2022-11-13T19:28:49.809Z,76.76
2022-11-13T19:31:19.197Z,77.42
2022-11-13T19:33:46.398Z,77.74
2022-11-13T19:36:18.096Z,77.75
2022-11-13T19:38:44.992Z,77.96
2022-11-13T19:41:12.784Z,77.46
2022-11-13T19:43:40.777Z,77.66
2022-11-13T19:46:10.396Z,77.49
2022-11-13T19:48:39.166Z,77.67
2022-11-13T19:51:09.601Z,77.42
2022-11-13T19:53:37.405Z,77.39
2022-11-13T19:56:05.243Z,77.41
2022-11-13T19:58:32.238Z,77.77
2022-11-13T20:00:59.037Z,77.53
2022-11-13T20:03:27.287Z,77.70
2022-11-13T20:05:55.582Z,77.99
2022-11-13T20:08:26.819Z,78.32
2022-11-13T20:10:54.479Z,78.54
2022-11-13T20:13:20.828Z,79.00
2022-11-13T20:15:54.628Z,78.80
2022-11-13T20:18:21.008Z,79.14
2022-11-13T20:20:51.785Z,79.45
2022-11-13T20:23:21.168Z,79.71
2022-11-13T20:25:55.860Z,80.00
2022-11-13T20:28:22.993Z,79.90
2022-11-13T20:30:50.176Z,80.38
2022-11-13T20:33:22.141Z,80.18
2022-11-13T20:35:54.740Z,80.07
2022-11-13T20:38:21.209Z,80.20
2022-11-13T20:40:47.533Z,80.06
2022-11-13T20:43:13.842Z,80.43
2022-11-13T20:45:40.291Z,80.28
2022-11-13T20:48:06.615Z,80.37
2022-11-13T20:50:35.879Z,80.59
2022-11-13T20:53:02.211Z,81.05
2022-11-13T20:55:28.604Z,80.32
2022-11-13T20:57:54.955Z,80.98
2022-11-13T21:00:21.411Z,80.87
2022-11-13T21:02:47.913Z,80.32
2022-11-13T21:05:15.524Z,79.92
2022-11-13T21:07:41.875Z,80.29
2022-11-13T21:10:08.751Z,79.94
2022-11-13T21:12:35.284Z,79.86
2022-11-13T21:15:01.867Z,79.43
2022-11-13T21:17:28.184Z,79.67
2022-11-13T21:19:57.600Z,80.43
2022-11-13T21:22:24.195Z,79.97
2022-11-13T21:24:50.606Z,80.25
2022-11-13T21:27:16.934Z,80.09
2022-11-13T21:29:43.250Z,80.12
2022-11-13T21:32:09.614Z,80.64
2022-11-13T21:34:35.961Z,80.62
2022-11-13T21:37:02.305Z,80.79
2022-11-13T21:39:28.621Z,80.99
2022-11-13T21:41:54.980Z,80.83
2022-11-13T21:44:21.306Z,80.53
2022-11-13T21:46:47.635Z,80.96
2022-11-13T21:49:14.053Z,81.18
2022-11-13T21:51:42.258Z,80.57
2022-11-13T21:54:09.295Z,80.53
2022-11-13T21:56:38.066Z,80.83
2022-11-13T21:59:05.749Z,80.23
2022-11-13T22:01:37.767Z,80.82
2022-11-13T22:04:05.290Z,80.49
2022-11-13T22:06:35.917Z,80.51
2022-11-13T22:09:03.607Z,80.33
2022-11-13T22:11:32.854Z,80.33
2022-11-13T22:13:59.498Z,80.63
2022-11-13T22:16:28.044Z,80.52
2022-11-13T22:18:56.034Z,80.34
2022-11-13T22:21:23.609Z,80.51
2022-11-13T22:23:50.161Z,81.17
2022-11-13T22:26:18.227Z,81.13
2022-11-13T22:28:46.074Z,81.57
2022-11-13T22:31:18.325Z,81.93
2022-11-13T22:33:48.760Z,81.77
2022-11-13T22:36:19.703Z,81.40
2022-11-13T22:38:46.387Z,81.24
2022-11-13T22:41:22.897Z,81.46
2022-11-13T22:43:59.590Z,81.68
2022-11-13T22:46:29.687Z,81.31
2022-11-13T22:48:58.037Z,81.43
2022-11-13T22:51:27.179Z,81.37
2022-11-13T22:53:58.935Z,81.61
2022-11-13T22:56:27.507Z,81.82
2022-11-13T22:58:55.774Z,81.91
2022-11-13T23:01:24.762Z,81.44
2022-11-13T23:03:52.386Z,81.67
2022-11-13T23:06:30.084Z,81.66
2022-11-13T23:08:56.668Z,82.16
2022-11-13T23:11:38.198Z,81.88
2022-11-13T23:14:06.494Z,82.79
2022-11-13T23:16:34.136Z,83.26
2022-11-13T23:19:01.330Z,82.06
2022-11-13T23:21:29.281Z,82.48
2022-11-13T23:23:56.807Z,82.58
2022-11-13T23:26:24.844Z,82.71
2022-11-13T23:28:51.425Z,82.79
2022-11-13T23:31:18.127Z,82.71
2022-11-13T23:33:44.563Z,83.38
2022-11-13T23:36:12.695Z,82.67
2022-11-13T23:38:39.016Z,83.13
2022-11-13T23:41:05.409Z,83.67
2022-11-13T23:44:02.045Z,83.22
2022-11-13T23:46:19.247Z,83.41
2022-11-13T23:48:45.714Z,83.89
2022-11-13T23:51:12.074Z,83.64
2022-11-13T23:53:38.383Z,83.96
2022-11-13T23:56:05.197Z,83.69
2022-11-13T23:58:32.652Z,84.27
